Flight Track Log - Related Links

Times and Time Zones

All times are in EDT time to prevent confusion due to time zone crossing. See the KAP927 flight status page for this flight to view local times or setup timezone preferences in your user account.

Time Position Orientation Groundspeed Altitude Reporting Facility
EDT Latitude Longitude Course Direction KTS MPH feet Rate Location/Type
Sat 08:49:54 AM 42.7906 -73.7756 98° East 126 145 1,700  Level Boston Center
Sat 08:51:01 AM 42.7850 -73.7217 98° East 130 150 2,200 496 Climbing Boston Center
Sat 08:52:07 AM 42.7772 -73.6678 101° East 131 151 2,800 472 Climbing Boston Center
Sat 08:53:08 AM 42.7653 -73.6167 108° East 133 153 3,200 443 Climbing Boston Center
Sat 08:54:09 AM 42.7594 -73.5683 99° East 134 154 3,700 485 Climbing Boston Center
Sat 08:55:24 AM 42.7539 -73.5061 97° East 135 155 4,300 508 Climbing Boston Center
Sat 08:56:19 AM 42.7439 -73.4636 108° East 135 155 4,800 517 Climbing Boston Center
Sat 08:57:20 AM 42.7358 -73.4153 103° East 135 155 5,300 458 Climbing Boston Center
Sat 08:58:17 AM 42.7303 -73.3531 97° East 135 155 5,700 462 Climbing Boston Center
Sat 08:59:17 AM 42.7242 -73.3106 101° East 135 155 6,200 450 Climbing Boston Center
Sat 09:00:17 AM 42.7164 -73.2594 102° East 141 162 6,600 446 Climbing Boston Center
Sat 09:01:18 AM 42.7064 -73.2058 104° East 148 170 7,100 397 Climbing Boston Center
Sat 09:02:18 AM 42.7003 -73.1519 99° East 142 163 7,400 305 Climbing Boston Center
Sat 09:03:16 AM 42.6903 -73.0953 103° East 147 169 7,700 151 Climbing Boston Center
Sat 09:04:17 AM 42.6803 -73.0361 103° East 147 169 7,700  Level Boston Center
Sat 09:05:18 AM 42.6764 -72.9794 95° East 157 181 7,700  Level Boston Center
Sat 09:06:16 AM 42.6661 -72.9200 103° East 163 188 7,700  Level Boston Center
Sat 09:07:17 AM 42.6558 -72.8608 103° East 163 188 7,700 -49 Level Boston Center
Sat 09:08:18 AM 42.6478 -72.8014 100° East 163 188 7,600 -50 Descending Boston Center
Sat 09:09:16 AM 42.6375 -72.7364 102° East 163 188 7,600  Level Boston Center
Sat 09:10:16 AM 42.6272 -72.6800 104° East 163 188 7,600 -50 Level Boston Center
Sat 09:11:17 AM 42.6192 -72.6178 100° East 163 188 7,500 -49 Descending Boston Center
Sat 09:12:18 AM 42.6108 -72.5586 101° East 163 188 7,500  Level Boston Center
Sat 09:13:18 AM 42.6006 -72.4992 103° East 163 188 7,500  Level Boston Center
Sat 09:14:16 AM 42.5922 -72.4400 101° East 163 188 7,500  Level Boston Center
Sat 09:15:16 AM 42.5817 -72.3808 104° East 163 188 7,500  Level Boston Center
Sat 09:16:29 AM 42.5711 -72.3075 101° East 163 188 7,500  Level Boston Center
Sat 09:17:29 AM 42.5608 -72.2542 105° East 163 188 7,500  Level Boston Center
Sat 09:18:30 AM 42.5522 -72.1892 100° East 163 188 7,500  Level Boston Center
Sat 09:19:28 AM 42.5417 -72.1358 105° East 163 188 7,500  Level Boston Center
Sat 09:20:28 AM 42.5331 -72.0711 100° East 163 188 7,500  Level Boston Center
Sat 09:21:29 AM 42.5225 -72.0119 104° East 158 182 7,500  Level Boston Center
Sat 09:22:29 AM 42.5139 -71.9528 101° East 158 182 7,500  Level Boston Center
Sat 09:23:29 AM 42.5053 -71.8939 101° East 158 182 7,500  Level Boston Center
Sat 09:24:30 AM 42.4967 -71.8375 102° East 158 182 7,500 -248 Level Boston Center
Sat 09:25:30 AM 42.4903 -71.7756 98° East 164 189 7,000 -454 Descending Boston Center
Sat 09:26:29 AM 42.4856 -71.7081 95° East 169 194 6,600 -450 Descending Boston Center
Sat 09:27:30 AM 42.4808 -71.6406 95° East 169 194 6,100 -645 Descending Boston Center
Sat 09:28:30 AM 42.4742 -71.5731 98° East 179 206 5,300 -718 Descending Boston Center
Sat 09:29:27 AM 42.4694 -71.5000 95° East 184 212 4,700 -407 Descending Boston Center
Sat 09:30:28 AM 42.4669 -71.4381 93° East 179 206 4,500 -98 Descending Boston Center
Sat 09:31:29 AM 42.4664 -71.3761 91° East 168 193 4,500  Level Boston Center
Sat 09:32:30 AM 42.4617 -71.3200 96° East 157 181 4,500  Level Boston Center
Sat 09:33:30 AM 42.4567 -71.2611 97° East 157 181 4,500  Level Boston Center
Sat 09:34:27 AM 42.4542 -71.2103 94° East 157 181 4,500  Level Boston Center
Sat 09:34:58 AM 42.4500 -71.1667 97° East 153 176 4,500  Level KA90
Sat 09:35:58 AM 42.4333 -71.1333 124° Southeast 161 185 4,500  Level KA90
Sat 09:36:53 AM 42.3833 -71.1167 166° South 160 184 4,500 -130 Level KA90
Sat 09:37:30 AM 42.3614 -71.1250 196° South 162 186 4,300 -557 Descending Boston Center
Sat 09:38:30 AM 42.3158 -71.1431 196° South 184 212 3,600 -532 Descending Boston Center
Sat 09:40:53 AM 42.2000 -71.1833 194° South 165 190 2,500 -325 Descending KA90
Sat 09:41:53 AM 42.1833 -71.1167 109° East 162 186 2,500  Level KA90
Sat 09:42:47 AM 42.2167 -71.0833 37° Northeast 158 182 2,500 -158 Level KA90
Sat 09:43:47 AM 42.2500 -71.0500 37° Northeast 163 188 2,200 -476 Descending KA90
Sat 09:44:53 AM 42.3000 -71.0333 14° North 169 194 1,500 -810 Descending KA90
Sat 09:45:53 AM 42.3333 -71.0167 20° North 143 165 500 -1,000 Descending KA90
Sat 09:47:00 AM 42.3630 -71.0064 26° Northeast  Level Estimated
Sat 09:54:00 AM 42.3630 -71.0064 270° West  Level Estimated
Sat 09:55:00 AM 42.3630 -71.0064 270° West  Level Estimated

Login

Don't have an account? Register now (free) for customized features, flight alerts, and more!